sensor_id;sensor_type;location;lat;lon;timestamp;pressure;altitude;pressure_sealevel;temperature;humidity
62779;BME280;48821;48.796;2.396;2023-07-30T06:56:46;101493.16;;;18.29;70.08
62779;BME280;48821;48.796;2.396;2023-07-30T06:57:58;101504.81;;;18.42;70.48
62779;BME280;48821;48.796;2.396;2023-07-30T06:59:08;101494.13;;;18.60;69.35
62779;BME280;48821;48.796;2.396;2023-07-30T07:00:20;101498.59;;;18.76;69.69
62779;BME280;48821;48.796;2.396;2023-07-30T07:01:34;101503.75;;;18.95;68.96
62779;BME280;48821;48.796;2.396;2023-07-30T07:02:48;101504.50;;;19.14;68.66
62779;BME280;48821;48.796;2.396;2023-07-30T07:04:01;101513.16;;;19.33;68.34
62779;BME280;48821;48.796;2.396;2023-07-30T07:05:15;101505.91;;;19.52;68.29
62779;BME280;48821;48.796;2.396;2023-07-30T07:06:28;101500.44;;;19.70;66.60
62779;BME280;48821;48.796;2.396;2023-07-30T07:07:41;101506.66;;;19.85;66.81
62779;BME280;48821;48.796;2.396;2023-07-30T07:08:55;101508.38;;;20.00;66.45
62779;BME280;48821;48.796;2.396;2023-07-30T07:10:05;101517.38;;;20.14;66.38
62779;BME280;48821;48.796;2.396;2023-07-30T07:11:18;101516.53;;;20.28;65.84
62779;BME280;48821;48.796;2.396;2023-07-30T07:12:31;101506.00;;;20.40;65.30
62779;BME280;48821;48.796;2.396;2023-07-30T07:13:44;101508.03;;;20.51;64.44
62779;BME280;48821;48.796;2.396;2023-07-30T07:14:55;101503.06;;;20.59;64.51
62779;BME280;48821;48.796;2.396;2023-07-30T07:16:11;101510.47;;;20.68;64.61
62779;BME280;48821;48.796;2.396;2023-07-30T07:17:24;101515.22;;;20.78;64.19
62779;BME280;48821;48.796;2.396;2023-07-30T07:18:37;101509.19;;;20.89;63.32
62779;BME280;48821;48.796;2.396;2023-07-30T07:19:48;101512.31;;;20.96;62.80
62779;BME280;48821;48.796;2.396;2023-07-30T07:20:59;101516.34;;;21.03;62.65
62779;BME280;48821;48.796;2.396;2023-07-30T07:22:09;101514.22;;;21.08;62.86
62779;BME280;48821;48.796;2.396;2023-07-30T07:23:20;101515.41;;;21.17;63.36
62779;BME280;48821;48.796;2.396;2023-07-30T07:24:31;101516.63;;;21.26;62.96
62779;BME280;48821;48.796;2.396;2023-07-30T07:25:45;101512.59;;;21.33;62.43
62779;BME280;48821;48.796;2.396;2023-07-30T07:26:55;101511.22;;;21.41;62.18
62779;BME280;48821;48.796;2.396;2023-07-30T07:28:06;101514.22;;;21.49;62.46
62779;BME280;48821;48.796;2.396;2023-07-30T07:29:18;101509.41;;;21.54;61.74
62779;BME280;48821;48.796;2.396;2023-07-30T07:30:34;101506.34;;;21.61;61.92
62779;BME280;48821;48.796;2.396;2023-07-30T07:31:47;101510.31;;;21.68;61.45
62779;BME280;48821;48.796;2.396;2023-07-30T07:33:01;101508.94;;;21.75;60.76
62779;BME280;48821;48.796;2.396;2023-07-30T07:34:14;101505.81;;;21.81;61.10
62779;BME280;48821;48.796;2.396;2023-07-30T07:35:24;101493.94;;;21.86;60.46
62779;BME280;48821;48.796;2.396;2023-07-30T07:36:36;101502.72;;;21.88;60.81
62779;BME280;48821;48.796;2.396;2023-07-30T07:37:48;101500.84;;;21.90;60.55
62779;BME280;48821;48.796;2.396;2023-07-30T07:38:59;101502.44;;;21.92;60.14
62779;BME280;48821;48.796;2.396;2023-07-30T07:40:10;101507.47;;;21.97;60.38
62779;BME280;48821;48.796;2.396;2023-07-30T07:41:21;101509.91;;;22.00;60.28
62779;BME280;48821;48.796;2.396;2023-07-30T07:42:32;101514.09;;;22.05;60.17
62779;BME280;48821;48.796;2.396;2023-07-30T07:43:47;101511.09;;;22.09;60.23
62779;BME280;48821;48.796;2.396;2023-07-30T07:44:57;101506.38;;;22.13;59.34
62779;BME280;48821;48.796;2.396;2023-07-30T07:46:08;101510.78;;;22.14;59.42
62779;BME280;48821;48.796;2.396;2023-07-30T07:47:23;101513.25;;;22.17;58.84
62779;BME280;48821;48.796;2.396;2023-07-30T07:48:34;101510.44;;;22.19;59.30
62779;BME280;48821;48.796;2.396;2023-07-30T07:49:44;101517.41;;;22.21;58.61
62779;BME280;48821;48.796;2.396;2023-07-30T07:50:55;101505.50;;;22.25;59.20
62779;BME280;48821;48.796;2.396;2023-07-30T07:52:07;101506.03;;;22.31;58.59
62779;BME280;48821;48.796;2.396;2023-07-30T07:53:20;101505.72;;;22.35;58.49
62779;BME280;48821;48.796;2.396;2023-07-30T07:54:34;101518.75;;;22.40;58.71
62779;BME280;48821;48.796;2.396;2023-07-30T07:55:45;101508.91;;;22.41;58.11
62779;BME280;48821;48.796;2.396;2023-07-30T07:56:56;101525.72;;;22.43;57.66
62779;BME280;48821;48.796;2.396;2023-07-30T07:58:06;101513.06;;;22.45;57.80
62779;BME280;48821;48.796;2.396;2023-07-30T07:59:17;101512.13;;;22.46;57.97
62779;BME280;48821;48.796;2.396;2023-07-30T08:00:28;101518.34;;;22.46;57.29
62779;BME280;48821;48.796;2.396;2023-07-30T08:01:39;101522.63;;;22.49;57.86
62779;BME280;48821;48.796;2.396;2023-07-30T08:02:52;101530.53;;;22.51;57.63
62779;BME280;48821;48.796;2.396;2023-07-30T08:04:02;101528.59;;;22.53;57.05
62779;BME280;48821;48.796;2.396;2023-07-30T08:05:13;101530.31;;;22.54;56.37
62779;BME280;48821;48.796;2.396;2023-07-30T08:06:25;101536.63;;;22.53;56.05
62779;BME280;48821;48.796;2.396;2023-07-30T08:07:38;101527.72;;;22.52;56.00
62779;BME280;48821;48.796;2.396;2023-07-30T08:08:52;101535.88;;;22.51;56.13
62779;BME280;48821;48.796;2.396;2023-07-30T08:10:02;101535.88;;;22.51;56.31
62779;BME280;48821;48.796;2.396;2023-07-30T08:11:14;101533.22;;;22.51;55.79
62779;BME280;48821;48.796;2.396;2023-07-30T08:12:27;101529.59;;;22.52;56.78
62779;BME280;48821;48.796;2.396;2023-07-30T08:13:38;101530.31;;;22.54;56.07
62779;BME280;48821;48.796;2.396;2023-07-30T08:14:52;101535.47;;;22.57;56.24
62779;BME280;48821;48.796;2.396;2023-07-30T08:16:02;101530.84;;;22.59;56.45
62779;BME280;48821;48.796;2.396;2023-07-30T08:17:13;101538.75;;;22.60;56.65
62779;BME280;48821;48.796;2.396;2023-07-30T08:18:24;101537.81;;;22.62;56.46
62779;BME280;48821;48.796;2.396;2023-07-30T08:19:35;101543.78;;;22.65;56.11
62779;BME280;48821;48.796;2.396;2023-07-30T08:20:47;101538.44;;;22.65;55.72
62779;BME280;48821;48.796;2.396;2023-07-30T08:21:59;101547.22;;;22.67;55.90
62779;BME280;48821;48.796;2.396;2023-07-30T08:23:10;101542.72;;;22.68;55.93
62779;BME280;48821;48.796;2.396;2023-07-30T08:24:21;101542.84;;;22.66;55.22
62779;BME280;48821;48.796;2.396;2023-07-30T08:25:32;101539.41;;;22.64;55.24
62779;BME280;48821;48.796;2.396;2023-07-30T08:26:43;101540.38;;;22.63;55.44
62779;BME280;48821;48.796;2.396;2023-07-30T08:27:54;101538.66;;;22.62;54.83
62779;BME280;48821;48.796;2.396;2023-07-30T08:29:05;101541.44;;;22.60;55.29
62779;BME280;48821;48.796;2.396;2023-07-30T08:30:16;101537.81;;;22.62;55.07
62779;BME280;48821;48.796;2.396;2023-07-30T08:31:27;101535.97;;;22.62;55.82
62779;BME280;48821;48.796;2.396;2023-07-30T08:32:37;101535.88;;;22.64;55.36
62779;BME280;48821;48.796;2.396;2023-07-30T08:33:49;101529.53;;;22.65;55.59
62779;BME280;48821;48.796;2.396;2023-07-30T08:35:03;101531.13;;;22.67;55.45
62779;BME280;48821;48.796;2.396;2023-07-30T08:36:14;101529.31;;;22.68;55.26
62779;BME280;48821;48.796;2.396;2023-07-30T08:37:25;101535.53;;;22.68;54.92
62779;BME280;48821;48.796;2.396;2023-07-30T08:38:35;101540.72;;;22.72;55.52
62779;BME280;48821;48.796;2.396;2023-07-30T08:39:47;101535.34;;;22.72;54.75
62779;BME280;48821;48.796;2.396;2023-07-30T08:40:57;101543.41;;;22.72;54.98
62779;BME280;48821;48.796;2.396;2023-07-30T08:42:08;101547.03;;;22.70;54.65
62779;BME280;48821;48.796;2.396;2023-07-30T08:43:19;101543.41;;;22.72;55.11
62779;BME280;48821;48.796;2.396;2023-07-30T08:44:31;101542.31;;;22.74;54.02
62779;BME280;48821;48.796;2.396;2023-07-30T08:45:43;101541.44;;;22.74;55.22
62779;BME280;48821;48.796;2.396;2023-07-30T08:46:56;101543.16;;;22.75;54.88
62779;BME280;48821;48.796;2.396;2023-07-30T08:48:09;101551.09;;;22.76;54.98
62779;BME280;48821;48.796;2.396;2023-07-30T08:49:22;101550.97;;;22.78;54.67
62779;BME280;48821;48.796;2.396;2023-07-30T08:50:36;101546.47;;;22.78;54.75
62779;BME280;48821;48.796;2.396;2023-07-30T08:51:48;101542.06;;;22.77;54.31
62779;BME280;48821;48.796;2.396;2023-07-30T08:53:02;101543.78;;;22.78;54.30
62779;BME280;48821;48.796;2.396;2023-07-30T08:54:14;101544.66;;;22.79;54.62
62779;BME280;48821;48.796;2.396;2023-07-30T08:55:26;101553.53;;;22.79;54.27
62779;BME280;48821;48.796;2.396;2023-07-30T08:56:41;101549.78;;;22.82;54.42
62779;BME280;48821;48.796;2.396;2023-07-30T08:57:56;101548.81;;;22.83;54.77
62779;BME280;48821;48.796;2.396;2023-07-30T08:59:08;101554.91;;;22.85;53.84
62779;BME280;48821;48.796;2.396;2023-07-30T09:00:25;101547.81;;;22.84;53.58
62779;BME280;48821;48.796;2.396;2023-07-30T09:01:39;101556.84;;;22.83;53.86
62779;BME280;48821;48.796;2.396;2023-07-30T09:02:56;101545.41;;;22.81;53.50
62779;BME280;48821;48.796;2.396;2023-07-30T09:04:11;101541.00;;;22.80;53.20
62779;BME280;48821;48.796;2.396;2023-07-30T09:05:22;101544.66;;;22.79;52.81
62779;BME280;48821;48.796;2.396;2023-07-30T09:06:35;101544.66;;;22.79;53.19
62779;BME280;48821;48.796;2.396;2023-07-30T09:07:46;101541.13;;;22.78;53.16
62779;BME280;48821;48.796;2.396;2023-07-30T09:08:57;101531.25;;;22.79;53.47
62779;BME280;48821;48.796;2.396;2023-07-30T09:10:08;101536.50;;;22.80;52.89
62779;BME280;48821;48.796;2.396;2023-07-30T09:11:25;101537.34;;;22.81;53.04
62779;BME280;48821;48.796;2.396;2023-07-30T09:12:39;101529.31;;;22.81;53.19
62779;BME280;48821;48.796;2.396;2023-07-30T09:13:54;101530.06;;;22.83;53.22
62779;BME280;48821;48.796;2.396;2023-07-30T09:15:06;101546.13;;;22.83;53.34
62779;BME280;48821;48.796;2.396;2023-07-30T09:16:17;101541.63;;;22.84;52.19
62779;BME280;48821;48.796;2.396;2023-07-30T09:17:28;101538.97;;;22.84;52.81
62779;BME280;48821;48.796;2.396;2023-07-30T09:18:44;101542.47;;;22.84;52.88
62779;BME280;48821;48.796;2.396;2023-07-30T09:19:55;101530.91;;;22.84;52.81
62779;BME280;48821;48.796;2.396;2023-07-30T09:21:06;101532.63;;;22.85;52.68
62779;BME280;48821;48.796;2.396;2023-07-30T09:22:26;101543.25;;;22.86;53.47
62779;BME280;48821;48.796;2.396;2023-07-30T09:23:44;101551.03;;;22.89;52.67
62779;BME280;48821;48.796;2.396;2023-07-30T09:24:56;101536.69;;;22.90;52.65
